Time;durP1;ratioP1;P1;durP2;ratioP2;P2;SDS_P1;SDS_P2;PMS_P1;PMS_P2;Temp;Humidity;BMP_temperature;BMP_pressure;BME280_temperature;BME280_humidity;BME280_pressure;Samples;Min_cycle;Max_cycle;Signal;HPM_P1;HPM_P2
2023/11/22 00:01:05;;;;;;;6.43;2.95;;;;;;;5.38;83.17;98912.16;4982841;28;102814;-64
2023/11/22 00:03:33;;;;;;;4.95;3.15;;;;;;;5.39;82.77;98920.88;4979044;28;104107;-63
2023/11/22 00:06:03;;;;;;;5.35;3.42;;;;;;;5.19;83.33;98922.53;4976015;28;103311;-63
2023/11/22 00:08:31;;;;;;;7.15;4.00;;;;;;;5.10;83.49;98924.97;4972880;28;102822;-63
2023/11/22 00:10:59;;;;;;;5.60;3.75;;;;;;;5.11;83.58;98921.41;4978827;28;102776;-64
2023/11/22 00:13:29;;;;;;;5.95;4.20;;;;;;;4.92;83.53;98927.34;4981600;28;103034;-64
2023/11/22 00:15:59;;;;;;;6.55;3.83;;;;;;;5.15;83.74;98927.25;4982517;28;103332;-64
2023/11/22 00:18:27;;;;;;;10.57;3.90;;;;;;;4.83;83.53;98922.84;4973165;28;102992;-64
2023/11/22 00:20:59;;;;;;;6.03;3.88;;;;;;;4.84;83.79;98931.56;4981597;28;103844;-65
2023/11/22 00:23:29;;;;;;;6.47;3.78;;;;;;;4.93;83.36;98929.00;4982474;28;103367;-65
2023/11/22 00:25:58;;;;;;;5.93;4.07;;;;;;;4.92;83.36;98931.75;4984550;28;103327;-64
2023/11/22 00:28:27;;;;;;;6.57;4.13;;;;;;;4.79;83.11;98931.94;4979900;28;103011;-64
2023/11/22 00:30:56;;;;;;;5.93;3.88;;;;;;;4.84;83.35;98934.19;4977700;28;104016;-64
2023/11/22 00:33:25;;;;;;;7.13;4.25;;;;;;;4.93;83.86;98938.69;4981172;28;104514;-64
2023/11/22 00:35:56;;;;;;;6.88;4.60;;;;;;;4.71;84.16;98953.53;4979185;28;103424;-65
2023/11/22 00:38:24;;;;;;;6.57;4.20;;;;;;;4.86;84.13;98958.50;4987724;28;102833;-64
2023/11/22 00:40:52;;;;;;;7.38;4.90;;;;;;;4.76;83.56;98961.88;4984084;28;102702;-64
2023/11/22 00:43:20;;;;;;;8.07;5.05;;;;;;;4.88;82.99;98956.59;4985360;28;103285;-64
2023/11/22 00:45:48;;;;;;;15.13;4.72;;;;;;;4.77;82.16;98971.44;4965405;28;104192;-64
2023/11/22 00:48:18;;;;;;;8.30;5.18;;;;;;;4.68;82.79;98971.31;4964271;28;102639;-64
2023/11/22 00:50:46;;;;;;;7.00;4.70;;;;;;;4.67;82.54;98975.75;4979353;28;103071;-64
2023/11/22 00:53:14;;;;;;;7.03;4.93;;;;;;;4.66;82.30;98979.31;4978611;28;103450;-64
2023/11/22 00:55:44;;;;;;;6.40;4.57;;;;;;;4.77;82.33;98976.66;4982458;28;103003;-64
2023/11/22 00:58:16;;;;;;;8.15;5.05;;;;;;;4.78;81.61;98978.34;4969196;28;102659;-63
2023/11/22 01:00:44;;;;;;;8.23;4.90;;;;;;;4.65;81.02;98982.88;4982909;28;102736;-64
2023/11/22 01:03:12;;;;;;;7.43;4.70;;;;;;;4.53;81.23;98995.19;4983572;28;103331;-64
2023/11/22 01:05:43;;;;;;;7.47;4.93;;;;;;;4.57;81.80;98995.81;4970230;28;103327;-64
2023/11/22 01:08:11;;;;;;;7.07;5.07;;;;;;;4.59;81.61;98996.53;4965749;28;102785;-64
2023/11/22 01:10:39;;;;;;;6.85;4.50;;;;;;;4.34;81.51;99008.97;4986286;28;103701;-64
2023/11/22 01:13:07;;;;;;;8.20;5.70;;;;;;;4.28;82.12;99005.03;4983876;28;103315;-66
2023/11/22 01:15:37;;;;;;;7.88;4.40;;;;;;;4.42;82.17;99008.34;4982749;28;103247;-64
2023/11/22 01:18:05;;;;;;;7.32;5.03;;;;;;;4.51;81.26;99017.25;4988804;28;102584;-64
2023/11/22 01:20:34;;;;;;;6.90;4.80;;;;;;;4.53;81.02;99016.19;4985360;28;103956;-66
2023/11/22 01:23:05;;;;;;;7.10;4.82;;;;;;;4.43;81.64;99016.09;4990380;28;103943;-64
2023/11/22 01:25:33;;;;;;;6.50;4.38;;;;;;;4.38;81.42;99017.41;4970630;28;103228;-64
2023/11/22 01:28:02;;;;;;;7.88;4.57;;;;;;;4.40;82.00;99016.34;4989580;28;102658;-64
2023/11/22 01:30:30;;;;;;;6.88;4.80;;;;;;;4.29;81.51;99024.22;4991062;28;102714;-64
2023/11/22 01:32:58;;;;;;;6.57;4.65;;;;;;;4.31;81.68;99022.31;4987545;28;103886;-64
2023/11/22 01:35:26;;;;;;;8.40;4.10;;;;;;;4.19;81.47;99036.38;4969512;28;103278;-63
2023/11/22 01:37:57;;;;;;;6.88;4.47;;;;;;;4.27;80.80;99036.59;4984007;28;102692;-63
2023/11/22 01:40:29;;;;;;;;;;;;;;;4.01;80.49;99038.63;4974988;28;103049;-67
2023/11/22 01:42:57;;;;;;;8.10;4.32;;;;;;;4.21;80.20;99031.84;4984043;28;104078;-64
2023/11/22 01:45:26;;;;;;;8.82;5.25;;;;;;;4.07;80.23;99032.91;4987242;28;103045;-65
2023/11/22 01:47:54;;;;;;;7.30;4.53;;;;;;;4.01;80.06;99042.09;4965448;28;102658;-63
2023/11/22 01:50:23;;;;;;;5.55;3.78;;;;;;;4.05;80.66;99047.91;4983350;28;102647;-64
2023/11/22 01:52:51;;;;;;;6.82;4.20;;;;;;;3.92;80.17;99055.91;4963845;28;103161;-64
2023/11/22 01:55:19;;;;;;;5.15;3.58;;;;;;;3.87;79.58;99058.03;4968830;28;104546;-64
2023/11/22 02:02:07;;;;;;;6.90;4.22;;;;;;;3.94;79.50;99067.94;4981751;28;103642;-64
2023/11/22 02:13:20;;;;;;;5.72;3.85;;;;;;;3.86;77.40;99086.00;4978176;28;102731;-65
2023/11/22 02:24:17;;;;;;;5.38;3.33;;;;;;;3.78;76.96;99101.47;4979068;28;103108;-65
2023/11/22 02:35:49;;;;;;;6.07;4.10;;;;;;;3.52;75.61;99113.88;4973017;28;103207;-64
2023/11/22 02:38:18;;;;;;;5.85;3.95;;;;;;;3.67;74.80;99106.66;4974228;28;103323;-64
2023/11/22 02:40:49;;;;;;;8.40;4.50;;;;;;;3.70;75.70;99107.28;4964313;28;102843;-63
2023/11/22 02:43:17;;;;;;;6.25;4.00;;;;;;;3.37;74.89;99103.59;4977836;28;103754;-64
2023/11/22 02:45:47;;;;;;;6.90;3.90;;;;;;;3.51;76.00;99113.06;4954529;28;103194;-64
2023/11/22 02:48:22;;;;;;;6.25;3.53;;;;;;;3.48;75.07;99113.28;4977202;28;103262;-64
2023/11/22 02:50:50;;;;;;;6.75;3.95;;;;;;;3.28;74.66;99123.41;4976265;28;102780;-64
2023/11/22 02:53:18;;;;;;;8.32;4.80;;;;;;;3.36;75.45;99122.84;4958424;28;102967;-65
2023/11/22 02:55:49;;;;;;;8.52;4.78;;;;;;;3.30;74.55;99125.91;4976861;28;103230;-64
2023/11/22 02:58:17;;;;;;;8.77;4.93;;;;;;;3.50;75.82;99127.09;4967863;28;103274;-64
2023/11/22 03:00:48;;;;;;;7.28;4.32;;;;;;;3.21;75.46;99147.53;4966503;28;102851;-64
2023/11/22 03:03:17;;;;;;;7.95;4.50;;;;;;;2.96;75.06;99149.28;4989817;28;104585;-64
2023/11/22 03:05:45;;;;;;;6.85;4.40;;;;;;;3.07;74.59;99146.75;4987824;28;103979;-64
2023/11/22 03:08:13;;;;;;;5.28;3.88;;;;;;;3.09;75.62;99144.84;4982705;28;103836;-64
2023/11/22 03:10:41;;;;;;;6.78;4.38;;;;;;;3.02;74.88;99153.25;4987340;28;102790;-64
2023/11/22 03:13:11;;;;;;;6.65;4.43;;;;;;;3.03;74.97;99154.94;4982035;28;103843;-64
2023/11/22 03:15:39;;;;;;;8.68;4.85;;;;;;;3.03;75.38;99163.59;4983826;28;104445;-63
2023/11/22 03:18:07;;;;;;;6.97;4.28;;;;;;;2.99;74.67;99168.22;4986094;28;103220;-64
2023/11/22 03:20:37;;;;;;;7.30;4.25;;;;;;;3.11;74.75;99169.13;4981540;28;102622;-63
2023/11/22 03:23:05;;;;;;;5.90;4.10;;;;;;;3.17;75.28;99177.50;4968290;28;104001;-63
2023/11/22 03:25:33;;;;;;;6.20;3.97;;;;;;;3.22;75.20;99170.97;4982925;28;103319;-67
2023/11/22 03:28:01;;;;;;;7.57;4.90;;;;;;;3.25;74.99;99170.78;4967117;28;103439;-64
2023/11/22 03:30:30;;;;;;;7.50;4.50;;;;;;;3.22;74.45;99180.63;4971222;28;102793;-64
2023/11/22 03:32:59;;;;;;;6.57;4.30;;;;;;;3.35;74.88;99183.19;4986377;28;104217;-63
2023/11/22 03:35:27;;;;;;;5.85;4.47;;;;;;;3.24;75.14;99179.56;4971756;28;104146;-64
2023/11/22 03:37:55;;;;;;;7.03;4.18;;;;;;;3.19;74.84;99183.47;4982144;28;103030;-64
2023/11/22 03:40:23;;;;;;;7.18;4.75;;;;;;;3.38;74.71;99178.59;4977341;28;102849;-64
2023/11/22 03:42:51;;;;;;;7.60;5.15;;;;;;;3.32;74.79;99192.09;4982317;28;103829;-64
2023/11/22 03:45:19;;;;;;;6.57;4.75;;;;;;;3.31;75.38;99203.53;4971487;28;103321;-64
2023/11/22 03:47:48;;;;;;;7.68;5.05;;;;;;;3.35;75.49;99212.00;4970728;28;103041;-64
2023/11/22 03:50:17;;;;;;;7.47;5.05;;;;;;;3.19;74.75;99213.09;4983109;28;102657;-64
2023/11/22 03:52:46;;;;;;;7.47;4.88;;;;;;;3.07;75.61;99214.78;4979978;28;104343;-65
2023/11/22 03:55:15;;;;;;;8.30;4.55;;;;;;;3.19;75.57;99218.31;4981731;28;103620;-65
2023/11/22 03:57:43;;;;;;;7.15;4.78;;;;;;;3.31;75.11;99219.22;4982845;28;103245;-65
2023/11/22 04:00:13;;;;;;;6.60;4.50;;;;;;;3.31;74.83;99216.59;4983705;28;102736;-65
2023/11/22 04:02:41;;;;;;;6.82;4.88;;;;;;;3.27;75.23;99217.78;4971275;28;102833;-65
2023/11/22 04:05:12;;;;;;;5.93;4.22;;;;;;;3.27;75.83;99220.41;4979187;28;103245;-64
2023/11/22 04:07:40;;;;;;;7.82;4.40;;;;;;;3.15;75.39;99216.88;4979572;28;103219;-64
2023/11/22 04:10:09;;;;;;;6.28;4.25;;;;;;;3.12;75.44;99217.91;4982086;28;102644;-64
2023/11/22 04:12:37;;;;;;;6.40;4.70;;;;;;;3.11;74.74;99218.84;4976803;28;104026;-64
2023/11/22 04:15:08;;;;;;;6.47;4.70;;;;;;;3.08;75.18;99226.06;4979685;28;104365;-64
2023/11/22 04:17:38;;;;;;;8.13;5.07;;;;;;;3.23;75.66;99226.78;4965446;28;104610;-64
2023/11/22 04:20:10;;;;;;;6.70;4.47;;;;;;;3.30;75.14;99226.25;4981354;28;102701;-64
2023/11/22 04:22:41;;;;;;;7.63;4.78;;;;;;;3.27;76.33;99228.25;4962425;28;104205;-64
2023/11/22 04:25:13;;;;;;;6.30;4.55;;;;;;;3.10;75.56;99235.50;4979881;28;102945;-64
2023/11/22 04:27:43;;;;;;;7.30;4.97;;;;;;;3.14;75.46;99231.75;4969717;28;104200;-64
2023/11/22 04:30:14;;;;;;;6.72;4.07;;;;;;;3.31;75.32;99238.41;4987279;28;102626;-64
2023/11/22 04:32:42;;;;;;;6.47;4.60;;;;;;;3.31;75.42;99253.25;4985971;28;102675;-63
2023/11/22 04:35:11;;;;;;;7.70;4.50;;;;;;;3.30;75.55;99247.22;4986266;28;104760;-64
2023/11/22 04:37:40;;;;;;;6.03;3.85;;;;;;;3.30;76.61;99246.34;4986716;28;103074;-64
2023/11/22 04:40:11;;;;;;;6.60;4.60;;;;;;;3.06;75.51;99260.22;4985995;28;102724;-63
2023/11/22 04:42:39;;;;;;;5.53;3.92;;;;;;;3.14;74.00;99257.91;4987962;28;103772;-63
2023/11/22 04:45:09;;;;;;;5.40;4.10;;;;;;;3.14;74.85;99276.25;4984981;28;103222;-64
2023/11/22 04:47:37;;;;;;;6.93;4.50;;;;;;;3.02;75.12;99274.47;4982430;28;105633;-63
2023/11/22 04:50:07;;;;;;;6.00;4.10;;;;;;;3.03;74.28;99273.53;4966117;28;102622;-64
2023/11/22 04:52:35;;;;;;;5.65;4.45;;;;;;;3.14;74.58;99272.78;4966342;28;103856;-64
2023/11/22 04:55:05;;;;;;;5.82;4.30;;;;;;;2.94;74.30;99284.63;4983233;28;104476;-64
2023/11/22 04:57:34;;;;;;;5.88;3.80;;;;;;;2.99;74.54;99283.34;4985403;28;103068;-64
2023/11/22 05:00:04;;;;;;;5.57;3.63;;;;;;;3.10;74.47;99285.22;4986173;28;102611;-64
2023/11/22 05:02:36;;;;;;;6.57;4.53;;;;;;;2.99;74.54;99285.16;4983827;28;102647;-64
2023/11/22 05:05:05;;;;;;;5.63;3.95;;;;;;;3.09;74.74;99290.56;4987500;28;103491;-64
2023/11/22 05:07:33;;;;;;;7.13;4.03;;;;;;;3.03;75.23;99289.22;4982972;28;103289;-64
2023/11/22 05:10:02;;;;;;;6.18;4.20;;;;;;;2.99;74.70;99300.84;4982739;28;102621;-64
2023/11/22 05:12:33;;;;;;;5.78;3.92;;;;;;;3.00;74.79;99302.53;4971013;28;102728;-64
2023/11/22 05:15:02;;;;;;;6.55;4.45;;;;;;;2.94;75.54;99303.75;4989806;28;104125;-64
2023/11/22 05:17:30;;;;;;;6.93;4.43;;;;;;;2.88;74.32;99321.66;4982344;28;103262;-63
2023/11/22 05:19:58;;;;;;;7.05;3.95;;;;;;;2.74;75.63;99307.75;4983656;28;102626;-63
2023/11/22 05:22:25;;;;;;;5.88;4.25;;;;;;;2.73;75.08;99319.13;4986614;28;102667;-64
2023/11/22 05:24:53;;;;;;;8.25;4.32;;;;;;;2.76;74.87;99329.38;4987656;28;103335;-63
2023/11/22 05:27:21;;;;;;;7.18;4.38;;;;;;;2.79;75.28;99329.19;4972678;28;104337;-63
2023/11/22 05:29:50;;;;;;;6.03;4.00;;;;;;;2.81;74.46;99329.09;4987320;28;102790;-64
2023/11/22 05:32:24;;;;;;;6.15;3.75;;;;;;;2.90;74.57;99333.69;4980653;28;102702;-64
2023/11/22 05:34:55;;;;;;;6.47;4.28;;;;;;;2.73;74.57;99329.59;4981407;28;103230;-64
2023/11/22 05:37:25;;;;;;;6.13;3.95;;;;;;;2.81;74.85;99322.06;4967251;28;103334;-64
2023/11/22 05:39:55;;;;;;;5.28;3.95;;;;;;;2.75;74.25;99319.88;4987650;28;102717;-63
2023/11/22 05:42:24;;;;;;;8.25;4.90;;;;;;;2.80;74.57;99323.03;4968754;28;102805;-64
2023/11/22 05:44:54;;;;;;;5.75;3.80;;;;;;;2.88;75.23;99324.28;4984309;28;102975;-64
2023/11/22 05:47:22;;;;;;;6.78;4.32;;;;;;;2.81;74.88;99327.31;4986105;28;103332;-64
2023/11/22 05:49:50;;;;;;;5.90;4.40;;;;;;;2.85;75.40;99327.13;4986267;28;103052;-64
2023/11/22 05:52:22;;;;;;;6.10;4.28;;;;;;;2.95;75.05;99328.16;4983982;28;102783;-65
2023/11/22 05:54:50;;;;;;;6.95;4.40;;;;;;;2.79;75.75;99330.97;4983161;28;103264;-64
2023/11/22 05:57:19;;;;;;;6.13;4.05;;;;;;;2.81;74.87;99335.16;4983464;28;103004;-64
2023/11/22 05:59:50;;;;;;;6.53;4.50;;;;;;;2.71;75.68;99352.44;4985342;28;102876;-63
2023/11/22 06:02:20;;;;;;;6.30;3.90;;;;;;;2.85;74.96;99353.28;4985046;28;103929;-64
2023/11/22 06:09:14;;;;;;;6.75;3.40;;;;;;;2.82;75.16;99367.41;4964661;28;103089;-64
2023/11/22 06:11:42;;;;;;;6.63;4.20;;;;;;;2.72;75.13;99372.38;4982749;28;103940;-64
2023/11/22 06:14:10;;;;;;;4.82;3.25;;;;;;;2.94;75.10;99377.03;4984665;28;102775;-63
2023/11/22 06:21:27;;;;;;;5.57;3.55;;;;;;;2.64;73.38;99393.00;4973417;28;104135;-63
2023/11/22 06:37:12;;;;;;;5.65;4.15;;;;;;;2.75;74.28;99410.59;4974223;28;103034;-64
2023/11/22 06:39:40;;;;;;;7.15;4.20;;;;;;;2.51;73.43;99410.44;4971807;28;102898;-63
2023/11/22 06:46:38;;;;;;;5.57;3.25;;;;;;;2.27;73.59;99406.66;4975635;28;103669;-63
2023/11/22 06:49:06;;;;;;;5.65;3.50;;;;;;;2.43;73.62;99406.50;4985687;28;103491;-63
2023/11/22 06:51:34;;;;;;;5.75;3.60;;;;;;;2.30;72.99;99422.13;4984461;28;103206;-64
2023/11/22 06:58:22;;;;;;;6.30;3.90;;;;;;;2.32;72.56;99427.28;4978074;28;103085;-63
2023/11/22 07:00:50;;;;;;;5.70;3.38;;;;;;;2.23;72.85;99427.88;4980585;28;103251;-63
2023/11/22 07:03:17;;;;;;;5.45;3.75;;;;;;;2.34;72.13;99424.56;4974477;28;104066;-65
2023/11/22 07:05:48;;;;;;;7.03;3.90;;;;;;;2.39;72.54;99428.56;4971393;28;102877;-64
2023/11/22 07:08:17;;;;;;;5.93;4.10;;;;;;;2.54;72.42;99433.75;4981791;28;103223;-63
2023/11/22 07:10:46;;;;;;;5.40;3.47;;;;;;;2.58;71.94;99433.47;4963589;28;103447;-63
2023/11/22 07:18:14;;;;;;;6.03;3.45;;;;;;;2.27;71.74;99439.81;4923140;28;102836;-63
2023/11/22 07:20:42;;;;;;;6.68;3.42;;;;;;;2.18;71.72;99443.84;4924199;28;103758;-63
2023/11/22 07:23:13;;;;;;;5.85;3.70;;;;;;;2.24;71.69;99453.06;4925517;28;103338;-63
2023/11/22 07:25:42;;;;;;;5.57;3.28;;;;;;;2.30;71.63;99450.91;4917831;28;102902;-63
2023/11/22 07:28:09;;;;;;;5.10;3.08;;;;;;;2.28;71.36;99460.63;4923322;28;104108;-64
2023/11/22 07:30:41;;;;;;;4.50;3.13;;;;;;;2.30;70.89;99470.97;4919073;28;104402;-69
2023/11/22 07:33:10;;;;;;;4.90;3.25;;;;;;;2.32;71.76;99479.59;4922737;28;102938;-64
2023/11/22 07:35:42;;;;;;;6.18;3.60;;;;;;;2.14;70.42;99478.94;4922683;28;103139;-64
2023/11/22 07:38:11;;;;;;;5.78;3.00;;;;;;;2.11;70.03;99479.13;4918294;28;102802;-64
2023/11/22 07:40:39;;;;;;;5.13;3.50;;;;;;;2.03;70.60;99484.84;4920980;28;103749;-64
2023/11/22 07:43:07;;;;;;;5.35;3.78;;;;;;;2.05;70.80;99497.81;4919569;28;103419;-64
2023/11/22 07:45:36;;;;;;;6.90;4.05;;;;;;;2.23;70.39;99498.47;4982844;28;102756;-64
2023/11/22 07:48:04;;;;;;;5.63;3.45;;;;;;;2.04;70.83;99502.19;4982806;28;102748;-69
2023/11/22 07:50:33;;;;;;;7.43;3.83;;;;;;;2.04;70.92;99504.78;4982770;28;104128;-69
2023/11/22 07:53:04;;;;;;;5.22;3.50;;;;;;;1.99;71.04;99506.84;4985574;28;103360;-69
2023/11/22 07:55:35;;;;;;;5.70;3.55;;;;;;;2.02;71.20;99506.66;4972314;28;102975;-70
2023/11/22 07:58:06;;;;;;;7.33;4.40;;;;;;;2.07;70.88;99495.94;4986154;28;103917;-69
2023/11/22 08:00:34;;;;;;;5.20;3.13;;;;;;;2.32;71.99;99495.25;4979780;28;103299;-69
2023/11/22 08:03:03;;;;;;;5.00;3.38;;;;;;;2.12;70.71;99499.94;4961746;28;103372;-70
2023/11/22 08:05:34;;;;;;;13.00;3.55;;;;;;;1.85;70.85;99506.84;4985561;28;103156;-68
2023/11/22 08:16:42;;;;;;;5.72;3.33;;;;;;;2.34;70.97;99518.69;4975754;28;104244;-68
2023/11/22 08:28:02;;;;;;;6.65;3.83;;;;;;;1.97;71.01;99517.41;4976012;28;103687;-65
2023/11/22 08:34:51;;;;;;;6.57;4.32;;;;;;;1.84;70.25;99519.06;4979130;28;102974;-64
2023/11/22 08:37:20;;;;;;;6.53;3.40;;;;;;;2.12;71.11;99512.16;4983810;28;103502;-63
2023/11/22 08:39:48;;;;;;;6.15;3.80;;;;;;;1.89;69.96;99518.81;4982532;28;104220;-64
2023/11/22 08:42:16;;;;;;;6.15;3.80;;;;;;;1.89;69.83;99522.25;4982318;28;103222;-64
2023/11/22 08:44:46;;;;;;;5.47;3.70;;;;;;;1.90;70.53;99520.47;4969421;28;102906;-64
2023/11/22 08:47:14;;;;;;;8.60;4.05;;;;;;;1.67;70.53;99530.53;4981149;28;102749;-64
2023/11/22 08:49:42;;;;;;;5.22;3.58;;;;;;;1.73;70.81;99522.34;4984265;28;103927;-64
2023/11/22 08:52:13;;;;;;;6.60;3.85;;;;;;;1.87;69.89;99528.50;4991844;28;102562;-64
2023/11/22 08:54:41;;;;;;;6.90;4.22;;;;;;;1.81;70.71;99522.72;4986217;28;103012;-64
2023/11/22 08:57:09;;;;;;;5.13;3.58;;;;;;;1.97;70.52;99527.84;4986098;28;103961;-64
2023/11/22 08:59:38;;;;;;;6.43;3.80;;;;;;;2.03;70.44;99531.03;4985326;28;103352;-63
2023/11/22 09:02:07;;;;;;;6.43;4.50;;;;;;;2.01;70.48;99528.50;4988515;28;103181;-63
2023/11/22 09:04:37;;;;;;;6.80;4.03;;;;;;;1.92;70.56;99523.84;4978146;28;102673;-64
2023/11/22 09:07:06;;;;;;;8.18;4.35;;;;;;;1.97;70.12;99525.22;4967906;28;103696;-64
2023/11/22 09:09:36;;;;;;;8.10;4.63;;;;;;;1.83;70.46;99525.22;4966442;28;104246;-64
2023/11/22 09:12:12;;;;;;;6.80;4.00;;;;;;;1.73;69.94;99517.09;4985005;28;103270;-64
2023/11/22 09:14:41;;;;;;;7.05;4.40;;;;;;;1.81;70.57;99522.72;4985227;28;102560;-64
2023/11/22 09:17:10;;;;;;;8.52;4.35;;;;;;;1.76;70.25;99521.31;4987197;28;103607;-64
2023/11/22 09:19:38;;;;;;;6.57;4.28;;;;;;;1.90;70.37;99523.06;4987725;28;102985;-64
2023/11/22 09:22:07;;;;;;;8.32;4.55;;;;;;;1.82;70.00;99519.16;4980571;28;103246;-64
2023/11/22 09:24:37;;;;;;;7.22;4.82;;;;;;;1.82;70.06;99528.75;4968692;28;103889;-64
2023/11/22 09:27:06;;;;;;;7.93;4.53;;;;;;;1.78;70.35;99535.97;4973017;28;102963;-63
2023/11/22 09:29:33;;;;;;;6.60;4.38;;;;;;;1.89;70.79;99529.25;4988428;28;103007;-64
2023/11/22 09:32:02;;;;;;;8.15;4.28;;;;;;;2.19;69.97;99523.94;4980467;28;104279;-64
2023/11/22 09:34:30;;;;;;;6.63;4.30;;;;;;;1.98;69.89;99534.75;4987562;28;102956;-70
2023/11/22 09:36:59;;;;;;;7.53;4.85;;;;;;;1.96;69.58;99541.84;4971885;28;102665;-65
2023/11/22 09:39:27;;;;;;;7.20;4.38;;;;;;;2.14;69.95;99541.66;4973442;28;103360;-64
2023/11/22 09:41:56;;;;;;;6.32;3.80;;;;;;;2.31;69.34;99540.63;4993487;28;103923;-64
2023/11/22 09:44:25;;;;;;;11.45;4.40;;;;;;;2.43;69.05;99529.41;4991862;28;102884;-64
2023/11/22 09:46:55;;;;;;;8.55;5.10;;;;;;;2.36;69.71;99537.72;4985600;28;102801;-64
2023/11/22 09:49:26;;;;;;;7.07;4.80;;;;;;;2.62;69.79;99551.78;4986490;28;103828;-65
2023/11/22 09:51:57;;;;;;;9.18;5.18;;;;;;;2.60;69.46;99556.28;4988711;28;103287;-64
2023/11/22 09:54:29;;;;;;;6.25;4.18;;;;;;;2.68;69.63;99558.41;4981962;28;102920;-65
2023/11/22 09:57:02;;;;;;;7.72;4.40;;;;;;;2.64;69.04;99561.22;4993982;28;102829;-65
2023/11/22 09:59:32;;;;;;;7.27;4.20;;;;;;;2.19;68.92;99567.50;4995021;28;103250;-65
2023/11/22 10:02:00;;;;;;;6.55;4.75;;;;;;;2.10;69.56;99576.75;4992560;28;103198;-66
2023/11/22 10:04:31;;;;;;;8.65;4.60;;;;;;;2.34;70.03;99589.28;4991508;28;102568;-65
2023/11/22 10:06:59;;;;;;;7.85;4.97;;;;;;;2.44;69.42;99585.16;4983372;28;102747;-64
2023/11/22 10:09:30;;;;;;;8.25;5.18;;;;;;;2.38;69.36;99593.38;4988490;28;103022;-64
2023/11/22 10:12:03;;;;;;;7.47;4.50;;;;;;;2.44;68.77;99604.31;4982238;28;103068;-64
2023/11/22 10:14:34;;;;;;;9.63;5.13;;;;;;;2.45;70.38;99598.16;4985905;28;102700;-65
2023/11/22 10:17:02;;;;;;;6.15;4.25;;;;;;;2.71;68.90;99589.59;4995989;28;102858;-64
2023/11/22 10:19:32;;;;;;;7.35;5.22;;;;;;;2.61;68.60;99595.41;4969967;28;103160;-65
2023/11/22 10:22:04;;;;;;;7.47;4.90;;;;;;;2.64;68.90;99583.94;4986453;28;103051;-64
2023/11/22 10:24:35;;;;;;;6.68;4.22;;;;;;;2.64;69.23;99595.22;4990718;28;103067;-64
2023/11/22 10:27:05;;;;;;;6.90;4.50;;;;;;;2.75;68.89;99588.47;4989024;28;102634;-65
2023/11/22 10:29:36;;;;;;;6.28;4.20;;;;;;;2.93;68.43;99592.53;4983407;28;103370;-64
2023/11/22 10:32:07;;;;;;;8.35;5.68;;;;;;;2.85;67.55;99586.13;4991426;28;103283;-65
2023/11/22 10:34:36;;;;;;;9.50;5.00;;;;;;;2.88;67.86;99580.69;4992613;28;102597;-65
2023/11/22 10:37:04;;;;;;;8.00;5.22;;;;;;;2.89;67.45;99587.63;4987889;28;102636;-64
2023/11/22 10:39:32;;;;;;;7.53;4.82;;;;;;;3.01;68.16;99581.59;4988030;28;103865;-65
2023/11/22 10:42:06;;;;;;;7.72;4.60;;;;;;;2.44;69.09;99582.56;4987203;28;103204;-64
2023/11/22 10:44:38;;;;;;;9.15;5.28;;;;;;;2.67;69.69;99575.88;4988908;28;102547;-64
2023/11/22 10:47:07;;;;;;;6.53;4.40;;;;;;;2.84;69.17;99585.28;4988313;28;103282;-64
2023/11/22 10:49:36;;;;;;;6.60;4.20;;;;;;;3.08;68.84;99580.28;4981754;28;104047;-63
2023/11/22 10:52:09;;;;;;;6.40;4.50;;;;;;;3.23;68.06;99582.84;4967693;28;103307;-63
2023/11/22 10:54:45;;;;;;;7.90;4.47;;;;;;;3.12;68.23;99589.59;4990358;28;102676;-65
2023/11/22 10:57:16;;;;;;;7.97;4.88;;;;;;;3.30;68.23;99589.34;4989650;28;104049;-65
2023/11/22 10:59:55;;;;;;;9.35;5.25;;;;;;;3.21;67.69;99597.78;4988595;28;103310;-64
2023/11/22 11:02:25;;;;;;;9.57;4.85;;;;;;;3.47;67.82;99593.47;4969794;28;103079;-64
2023/11/22 11:05:07;;;;;;;7.05;4.78;;;;;;;3.27;68.36;99594.78;4988923;28;103058;-63
2023/11/22 11:07:41;;;;;;;9.40;4.85;;;;;;;3.28;68.37;99614.81;4988122;28;104008;-66
2023/11/22 11:10:12;;;;;;;7.72;4.72;;;;;;;3.19;68.37;99615.41;4985496;28;104350;-65
2023/11/22 11:12:50;;;;;;;7.68;5.35;;;;;;;3.10;68.18;99612.41;4981203;28;103043;-65
2023/11/22 11:15:23;;;;;;;8.68;5.70;;;;;;;3.04;70.09;99619.81;4987886;28;102565;-65
2023/11/22 11:17:51;;;;;;;8.38;4.97;;;;;;;2.92;69.08;99614.44;4985253;28;102725;-65
2023/11/22 11:20:19;;;;;;;8.43;5.10;;;;;;;3.28;69.27;99610.41;4985699;28;103219;-64
2023/11/22 11:22:49;;;;;;;7.80;5.25;;;;;;;3.22;68.50;99616.03;4982553;28;102574;-65
2023/11/22 11:25:18;;;;;;;11.60;5.60;;;;;;;3.12;69.66;99617.56;4981622;28;102557;-65
2023/11/22 11:27:57;;;;;;;8.80;5.72;;;;;;;3.13;68.67;99617.47;4985978;28;102810;-65
2023/11/22 11:30:45;;;;;;;7.78;4.85;;;;;;;3.16;67.88;99616.44;4982573;28;104846;-65
2023/11/22 11:33:16;;;;;;;7.22;4.95;;;;;;;3.35;68.18;99610.00;4981418;28;103756;-65
2023/11/22 11:35:48;;;;;;;8.20;5.25;;;;;;;3.20;68.85;99617.91;4982595;28;102649;-64
2023/11/22 11:38:21;;;;;;;9.23;6.28;;;;;;;2.72;69.14;99613.06;4987951;28;104120;-64
2023/11/22 11:40:50;;;;;;;8.23;5.00;;;;;;;3.04;69.05;99612.81;4980772;28;104042;-65
2023/11/22 11:43:22;;;;;;;8.48;5.65;;;;;;;2.97;68.52;99611.50;4985979;28;103186;-65
2023/11/22 11:45:54;;;;;;;8.05;4.90;;;;;;;2.94;69.25;99616.97;4981222;28;102598;-65
2023/11/22 11:48:24;;;;;;;7.22;5.28;;;;;;;2.94;68.99;99616.97;4982683;28;102649;-65
2023/11/22 11:50:53;;;;;;;10.88;5.93;;;;;;;2.95;69.32;99629.09;4987722;28;104447;-65
2023/11/22 11:53:21;;;;;;;7.20;4.68;;;;;;;2.97;69.69;99630.69;4991196;28;102908;-64
2023/11/22 11:55:53;;;;;;;8.25;6.00;;;;;;;2.70;69.36;99630.63;4985388;28;102697;-64
2023/11/22 11:58:22;;;;;;;7.70;5.13;;;;;;;2.62;69.91;99632.88;4988039;28;103819;-63
2023/11/22 12:00:54;;;;;;;6.85;4.90;;;;;;;2.68;68.57;99637.72;4981010;28;104078;-64
2023/11/22 12:03:22;;;;;;;7.15;5.20;;;;;;;2.92;69.31;99639.75;4981978;28;103742;-64
2023/11/22 12:05:50;;;;;;;8.65;5.72;;;;;;;3.24;68.84;99649.97;4984222;28;102931;-64
2023/11/22 12:08:19;;;;;;;7.40;5.78;;;;;;;3.04;67.87;99649.47;4988137;28;102932;-64
2023/11/22 12:10:49;;;;;;;7.05;4.82;;;;;;;3.03;68.07;99650.41;4983465;28;103221;-64
2023/11/22 12:13:19;;;;;;;7.38;5.22;;;;;;;3.08;68.16;99653.56;4989440;28;103099;-64
2023/11/22 12:15:47;;;;;;;8.25;5.60;;;;;;;2.77;68.50;99658.09;4984914;28;102735;-64
2023/11/22 12:18:17;;;;;;;7.35;5.03;;;;;;;2.70;68.51;99659.41;4988089;28;102876;-64
2023/11/22 12:20:56;;;;;;;7.97;5.00;;;;;;;2.92;68.27;99671.16;4987015;28;103332;-65
2023/11/22 12:23:27;;;;;;;8.95;5.55;;;;;;;2.88;68.20;99677.50;4983220;28;103313;-63
2023/11/22 12:25:56;;;;;;;9.90;5.63;;;;;;;2.89;68.73;99684.44;4977665;28;102971;-66
2023/11/22 12:28:27;;;;;;;9.88;5.45;;;;;;;2.91;68.50;99685.16;4986838;28;102706;-65
2023/11/22 12:31:07;;;;;;;;;;;;;;;2.55;68.27;99682.09;4989269;28;102634;-64
2023/11/22 12:33:37;;;;;;;8.77;5.25;;;;;;;2.82;68.30;99676.97;4966145;28;103146;-63
2023/11/22 12:36:06;;;;;;;8.15;5.53;;;;;;;2.79;68.39;99682.38;4983855;28;102623;-64
2023/11/22 12:38:35;;;;;;;7.97;5.32;;;;;;;2.70;68.56;99680.34;4985920;28;103484;-63
2023/11/22 12:41:06;;;;;;;9.30;5.05;;;;;;;2.70;68.09;99682.97;4967058;28;103833;-66
2023/11/22 12:43:38;;;;;;;8.25;5.75;;;;;;;2.41;68.69;99680.31;4981389;28;103214;-64
2023/11/22 12:46:17;;;;;;;8.98;5.20;;;;;;;2.78;68.75;99675.47;4985879;28;102615;-66
2023/11/22 12:48:47;;;;;;;9.43;6.05;;;;;;;2.68;68.61;99669.13;4987686;28;102740;-65
2023/11/22 12:51:16;;;;;;;10.30;6.35;;;;;;;2.51;68.39;99671.94;4979639;28;103038;-64
2023/11/22 12:53:48;;;;;;;8.65;5.85;;;;;;;2.52;68.48;99663.16;4984739;28;103353;-64
2023/11/22 12:56:17;;;;;;;7.82;5.55;;;;;;;2.46;68.74;99669.56;4987963;28;102628;-65
2023/11/22 12:58:46;;;;;;;8.75;5.75;;;;;;;2.36;69.05;99671.91;4990774;28;103178;-64
2023/11/22 13:01:15;;;;;;;7.13;4.72;;;;;;;2.41;67.88;99656.78;4987337;28;103040;-65
2023/11/22 13:03:43;;;;;;;6.50;4.60;;;;;;;2.81;68.75;99654.34;4986991;28;103314;-64
2023/11/22 13:06:13;;;;;;;9.30;6.57;;;;;;;2.92;67.74;99655.44;4989614;28;103257;-63
2023/11/22 13:08:41;;;;;;;8.75;6.13;;;;;;;2.71;67.63;99663.72;4989894;28;103044;-70
2023/11/22 13:11:10;;;;;;;8.23;5.85;;;;;;;2.66;67.71;99655.31;4982583;28;103002;-64
2023/11/22 13:13:41;;;;;;;8.77;5.75;;;;;;;2.76;67.88;99653.78;4977119;28;103186;-65